Terminal Aerodrome Forecast
Issued by NWS

Home | Current Version | Previous Version | Text Only | Print | Product List | Glossary On
Versions: 1 2 3 4 5 6 7 8 9 10 11 12 13
018
FTUS45 KABQ 271128
TAFSAF
TAF
KSAF 271128Z 2712/2812 01006KT P6SM SCT200
     FM271600 21009KT P6SM FEW090 SCT200
     FM272100 23012G20KT P6SM BKN080
     FM280200 VRB05KT P6SM BKN070=

USA.gov is the U.S. government's official web portal to all federal, state and local government web resources and services.